Alpena, Arkansas
Current Conditions -  °F | °C
As of 11:53 PM on Tuesday 21 Oct 2014 (Local Time) from KHRO Reporting Station
Clear Clear  
Wind Chill: 53°   Ceiling: Unl
Heat Index: 53°   Visibility: 10mi
Dew Point: 48°   Wind: 3mph
Humidity: 83%   Direction: 180°S
Pressure: 30.14"   Gusts: NA
Location:  36.29°N, 93.29°W
Report Text: KHRO 220453Z AUTO 18003KT 10SM CLR 12/09 A3014 RMK AO2 SLP199 T01170089
Loading
Personal Weather Stations






























Interactive Weather Map
Tropical Storm Tracking
New forecast layout! Learn more

10-Day Weather Forecast

Advertisements
Track Severe Weather on mobile